Weather at Sub Teniente Nestor Arias Airport

Public forecast

Using degrees Celsius for public forecast. Weather courtesy of forecast.io.

Current aviation weather report (METAR) for Sub Teniente Nestor Arias Airport

Report is more than 6 hours old.

Retrieved 2017/08/10 11:00 UTC (3 years ago):

SVSP 101100Z 101100VCFG SCT012 SCT200 25/25 A2990

Closest aviation forecast (TAF) to Sub Teniente Nestor Arias Airport

Forecast is more than 12 hours old.

Closest forecast is Barquisimeto International Airport, 38.4 nm (71.1 km) WSW. Retrieved 2020/09/30 12:03 UTC (17 hours ago):

TAF SVBM 301255Z 3012/0112 11007KT 8000 BR FEW013 SCT070 TX33/3018Z TN22/0108Z BECMG 3014/3018 07010KT 7000 VCTSDZ FEW013CB BKN070